sensor_id;sensor_type;location;lat;lon;timestamp;temperature;humidity
15947;DHT22;8072;52.554;7.966;2023-06-24T00:02:02;17.60;99.90
15947;DHT22;8072;52.554;7.966;2023-06-24T00:04:28;17.60;99.90
15947;DHT22;8072;52.554;7.966;2023-06-24T00:06:53;17.60;99.90
15947;DHT22;8072;52.554;7.966;2023-06-24T00:09:21;17.60;99.90
15947;DHT22;8072;52.554;7.966;2023-06-24T00:11:47;17.60;99.90
15947;DHT22;8072;52.554;7.966;2023-06-24T00:14:13;17.60;99.90
15947;DHT22;8072;52.554;7.966;2023-06-24T00:16:40;17.60;99.90
15947;DHT22;8072;52.554;7.966;2023-06-24T00:19:07;17.60;99.90
15947;DHT22;8072;52.554;7.966;2023-06-24T00:21:33;17.60;99.90
15947;DHT22;8072;52.554;7.966;2023-06-24T00:24:03;17.60;99.90
15947;DHT22;8072;52.554;7.966;2023-06-24T00:26:30;17.60;99.90
15947;DHT22;8072;52.554;7.966;2023-06-24T00:28:58;17.60;99.90
15947;DHT22;8072;52.554;7.966;2023-06-24T00:31:24;17.60;99.90
15947;DHT22;8072;52.554;7.966;2023-06-24T00:33:50;17.60;99.90
15947;DHT22;8072;52.554;7.966;2023-06-24T00:36:17;17.50;99.90
15947;DHT22;8072;52.554;7.966;2023-06-24T00:38:43;17.50;99.90
15947;DHT22;8072;52.554;7.966;2023-06-24T00:41:09;17.40;99.90
15947;DHT22;8072;52.554;7.966;2023-06-24T00:43:35;17.40;99.90
15947;DHT22;8072;52.554;7.966;2023-06-24T00:46:02;17.40;99.90
15947;DHT22;8072;52.554;7.966;2023-06-24T00:48:28;17.30;99.90
15947;DHT22;8072;52.554;7.966;2023-06-24T00:50:54;17.20;99.90
15947;DHT22;8072;52.554;7.966;2023-06-24T00:53:20;17.10;99.90
15947;DHT22;8072;52.554;7.966;2023-06-24T00:55:50;17.00;99.90
15947;DHT22;8072;52.554;7.966;2023-06-24T00:58:18;16.90;99.90
15947;DHT22;8072;52.554;7.966;2023-06-24T01:00:47;16.90;99.90
15947;DHT22;8072;52.554;7.966;2023-06-24T01:03:23;16.80;99.90
15947;DHT22;8072;52.554;7.966;2023-06-24T01:05:51;16.70;99.90
15947;DHT22;8072;52.554;7.966;2023-06-24T01:08:18;16.70;99.90
15947;DHT22;8072;52.554;7.966;2023-06-24T01:10:45;16.70;99.90
15947;DHT22;8072;52.554;7.966;2023-06-24T01:13:10;16.60;99.90
15947;DHT22;8072;52.554;7.966;2023-06-24T01:15:37;16.60;99.90
15947;DHT22;8072;52.554;7.966;2023-06-24T01:20:55;16.60;99.90
15947;DHT22;8072;52.554;7.966;2023-06-24T01:31:37;16.70;99.90
15947;DHT22;8072;52.554;7.966;2023-06-24T01:34:36;16.70;99.90
15947;DHT22;8072;52.554;7.966;2023-06-24T01:37:25;16.70;99.90
15947;DHT22;8072;52.554;7.966;2023-06-24T01:40:05;16.70;99.90
15947;DHT22;8072;52.554;7.966;2023-06-24T01:42:38;16.70;99.90
15947;DHT22;8072;52.554;7.966;2023-06-24T01:45:07;16.70;99.90
15947;DHT22;8072;52.554;7.966;2023-06-24T01:47:35;16.60;99.90
15947;DHT22;8072;52.554;7.966;2023-06-24T01:50:03;16.60;99.90
15947;DHT22;8072;52.554;7.966;2023-06-24T01:52:29;16.60;99.90
15947;DHT22;8072;52.554;7.966;2023-06-24T01:54:58;16.60;99.90
15947;DHT22;8072;52.554;7.966;2023-06-24T01:57:26;16.60;99.90
15947;DHT22;8072;52.554;7.966;2023-06-24T01:59:54;16.60;99.90
15947;DHT22;8072;52.554;7.966;2023-06-24T02:02:21;16.60;99.90
15947;DHT22;8072;52.554;7.966;2023-06-24T02:04:49;16.50;99.90
15947;DHT22;8072;52.554;7.966;2023-06-24T02:07:19;16.40;99.90
15947;DHT22;8072;52.554;7.966;2023-06-24T02:09:45;16.40;99.90
15947;DHT22;8072;52.554;7.966;2023-06-24T02:12:12;16.30;99.90
15947;DHT22;8072;52.554;7.966;2023-06-24T02:14:39;16.30;99.90
15947;DHT22;8072;52.554;7.966;2023-06-24T02:17:08;16.20;99.90
15947;DHT22;8072;52.554;7.966;2023-06-24T02:19:36;16.10;99.90
15947;DHT22;8072;52.554;7.966;2023-06-24T02:22:02;16.10;99.90
15947;DHT22;8072;52.554;7.966;2023-06-24T02:24:30;16.00;99.90
15947;DHT22;8072;52.554;7.966;2023-06-24T02:26:57;15.90;99.90
15947;DHT22;8072;52.554;7.966;2023-06-24T02:29:26;15.80;99.90
15947;DHT22;8072;52.554;7.966;2023-06-24T02:31:53;15.70;99.90
15947;DHT22;8072;52.554;7.966;2023-06-24T02:34:19;15.70;99.90
15947;DHT22;8072;52.554;7.966;2023-06-24T02:36:45;15.60;99.90
15947;DHT22;8072;52.554;7.966;2023-06-24T02:39:12;15.60;99.90
15947;DHT22;8072;52.554;7.966;2023-06-24T02:41:38;15.60;99.90
15947;DHT22;8072;52.554;7.966;2023-06-24T02:44:03;15.60;99.90
15947;DHT22;8072;52.554;7.966;2023-06-24T02:46:31;15.60;99.90
15947;DHT22;8072;52.554;7.966;2023-06-24T02:48:59;15.70;99.90
15947;DHT22;8072;52.554;7.966;2023-06-24T02:51:26;15.70;99.90
15947;DHT22;8072;52.554;7.966;2023-06-24T02:53:52;15.70;99.90
15947;DHT22;8072;52.554;7.966;2023-06-24T02:56:19;15.70;99.90
15947;DHT22;8072;52.554;7.966;2023-06-24T02:58:47;15.70;99.90
15947;DHT22;8072;52.554;7.966;2023-06-24T03:01:14;15.70;99.90
15947;DHT22;8072;52.554;7.966;2023-06-24T03:03:41;15.70;99.90
15947;DHT22;8072;52.554;7.966;2023-06-24T03:06:12;15.70;99.90
15947;DHT22;8072;52.554;7.966;2023-06-24T03:08:40;15.70;99.90
15947;DHT22;8072;52.554;7.966;2023-06-24T03:11:07;15.70;99.90
15947;DHT22;8072;52.554;7.966;2023-06-24T03:13:33;15.70;99.90
15947;DHT22;8072;52.554;7.966;2023-06-24T03:16:00;15.70;99.90
15947;DHT22;8072;52.554;7.966;2023-06-24T03:18:26;15.70;99.90
15947;DHT22;8072;52.554;7.966;2023-06-24T03:20:52;15.60;99.90
15947;DHT22;8072;52.554;7.966;2023-06-24T03:23:18;15.60;99.90
15947;DHT22;8072;52.554;7.966;2023-06-24T03:25:44;15.60;99.90
15947;DHT22;8072;52.554;7.966;2023-06-24T03:28:09;15.50;99.90
15947;DHT22;8072;52.554;7.966;2023-06-24T03:30:35;15.50;99.90
15947;DHT22;8072;52.554;7.966;2023-06-24T03:33:01;15.50;99.90
15947;DHT22;8072;52.554;7.966;2023-06-24T03:35:27;15.50;99.90
15947;DHT22;8072;52.554;7.966;2023-06-24T03:37:53;15.50;99.90
15947;DHT22;8072;52.554;7.966;2023-06-24T03:40:18;15.50;99.90
15947;DHT22;8072;52.554;7.966;2023-06-24T03:42:44;15.50;99.90
15947;DHT22;8072;52.554;7.966;2023-06-24T03:45:10;15.50;99.90
15947;DHT22;8072;52.554;7.966;2023-06-24T03:47:37;15.50;99.90
15947;DHT22;8072;52.554;7.966;2023-06-24T03:50:05;15.40;99.90
15947;DHT22;8072;52.554;7.966;2023-06-24T03:52:30;15.40;99.90
15947;DHT22;8072;52.554;7.966;2023-06-24T03:54:56;15.40;99.90
15947;DHT22;8072;52.554;7.966;2023-06-24T03:57:22;15.40;99.90
15947;DHT22;8072;52.554;7.966;2023-06-24T03:59:48;15.40;99.90
15947;DHT22;8072;52.554;7.966;2023-06-24T04:02:14;15.30;99.90
15947;DHT22;8072;52.554;7.966;2023-06-24T04:04:41;15.30;99.90
15947;DHT22;8072;52.554;7.966;2023-06-24T04:07:06;15.30;99.90
15947;DHT22;8072;52.554;7.966;2023-06-24T04:09:35;15.30;99.90
15947;DHT22;8072;52.554;7.966;2023-06-24T04:12:01;15.40;99.90
15947;DHT22;8072;52.554;7.966;2023-06-24T04:14:28;15.30;99.90
15947;DHT22;8072;52.554;7.966;2023-06-24T04:16:54;15.40;99.90
15947;DHT22;8072;52.554;7.966;2023-06-24T04:19:20;15.40;99.90
15947;DHT22;8072;52.554;7.966;2023-06-24T04:21:45;15.30;99.90
15947;DHT22;8072;52.554;7.966;2023-06-24T04:24:11;15.40;99.90
15947;DHT22;8072;52.554;7.966;2023-06-24T04:26:37;15.40;99.90
15947;DHT22;8072;52.554;7.966;2023-06-24T04:29:02;15.40;99.90
15947;DHT22;8072;52.554;7.966;2023-06-24T04:31:28;15.50;99.90
15947;DHT22;8072;52.554;7.966;2023-06-24T04:33:54;15.50;99.90
15947;DHT22;8072;52.554;7.966;2023-06-24T04:36:20;15.50;99.90
15947;DHT22;8072;52.554;7.966;2023-06-24T04:38:46;15.40;99.90
15947;DHT22;8072;52.554;7.966;2023-06-24T04:41:11;15.40;99.90
15947;DHT22;8072;52.554;7.966;2023-06-24T04:43:37;15.40;99.90
15947;DHT22;8072;52.554;7.966;2023-06-24T04:46:03;15.50;99.90
15947;DHT22;8072;52.554;7.966;2023-06-24T04:48:29;15.40;99.90
15947;DHT22;8072;52.554;7.966;2023-06-24T04:50:54;15.40;99.90
15947;DHT22;8072;52.554;7.966;2023-06-24T04:53:21;15.40;99.90
15947;DHT22;8072;52.554;7.966;2023-06-24T04:55:47;15.50;99.90
15947;DHT22;8072;52.554;7.966;2023-06-24T04:58:13;15.50;99.90
15947;DHT22;8072;52.554;7.966;2023-06-24T05:00:39;15.50;99.90
15947;DHT22;8072;52.554;7.966;2023-06-24T05:03:05;15.50;99.90
15947;DHT22;8072;52.554;7.966;2023-06-24T05:05:31;15.50;99.90
15947;DHT22;8072;52.554;7.966;2023-06-24T05:07:57;15.60;99.90
15947;DHT22;8072;52.554;7.966;2023-06-24T05:10:22;15.60;99.90
15947;DHT22;8072;52.554;7.966;2023-06-24T05:12:48;15.70;99.90
15947;DHT22;8072;52.554;7.966;2023-06-24T05:15:14;15.70;99.90
15947;DHT22;8072;52.554;7.966;2023-06-24T05:17:40;15.80;99.90
15947;DHT22;8072;52.554;7.966;2023-06-24T05:20:06;15.80;99.90
15947;DHT22;8072;52.554;7.966;2023-06-24T05:22:32;15.90;99.90
15947;DHT22;8072;52.554;7.966;2023-06-24T05:24:57;16.00;99.90
15947;DHT22;8072;52.554;7.966;2023-06-24T05:27:24;16.00;99.90
15947;DHT22;8072;52.554;7.966;2023-06-24T05:29:50;16.10;99.90
15947;DHT22;8072;52.554;7.966;2023-06-24T05:32:16;16.10;99.90
15947;DHT22;8072;52.554;7.966;2023-06-24T05:34:43;16.20;99.90
15947;DHT22;8072;52.554;7.966;2023-06-24T05:37:09;16.30;99.90
15947;DHT22;8072;52.554;7.966;2023-06-24T05:39:34;16.30;99.90
15947;DHT22;8072;52.554;7.966;2023-06-24T05:42:00;16.40;99.90
15947;DHT22;8072;52.554;7.966;2023-06-24T05:44:26;16.40;99.90
15947;DHT22;8072;52.554;7.966;2023-06-24T05:46:52;16.50;99.90
15947;DHT22;8072;52.554;7.966;2023-06-24T05:49:18;16.60;99.90
15947;DHT22;8072;52.554;7.966;2023-06-24T05:51:43;16.60;99.90
15947;DHT22;8072;52.554;7.966;2023-06-24T05:54:09;16.70;99.90
15947;DHT22;8072;52.554;7.966;2023-06-24T05:56:35;16.70;99.90
15947;DHT22;8072;52.554;7.966;2023-06-24T05:59:02;16.80;99.90
15947;DHT22;8072;52.554;7.966;2023-06-24T06:01:27;16.90;99.90
15947;DHT22;8072;52.554;7.966;2023-06-24T06:03:53;16.90;99.90
15947;DHT22;8072;52.554;7.966;2023-06-24T06:06:19;17.00;99.90
15947;DHT22;8072;52.554;7.966;2023-06-24T06:08:45;17.10;99.90
15947;DHT22;8072;52.554;7.966;2023-06-24T06:11:10;17.20;99.90
15947;DHT22;8072;52.554;7.966;2023-06-24T06:13:36;17.30;99.90
15947;DHT22;8072;52.554;7.966;2023-06-24T06:16:02;17.40;99.90
15947;DHT22;8072;52.554;7.966;2023-06-24T06:18:28;17.50;99.90
15947;DHT22;8072;52.554;7.966;2023-06-24T06:20:54;17.60;99.90
15947;DHT22;8072;52.554;7.966;2023-06-24T06:23:19;17.70;99.90
15947;DHT22;8072;52.554;7.966;2023-06-24T06:25:45;17.80;99.90
15947;DHT22;8072;52.554;7.966;2023-06-24T06:28:11;17.90;99.90
15947;DHT22;8072;52.554;7.966;2023-06-24T06:30:37;18.00;99.90
15947;DHT22;8072;52.554;7.966;2023-06-24T06:33:03;18.00;99.90
15947;DHT22;8072;52.554;7.966;2023-06-24T06:35:29;18.10;99.90
15947;DHT22;8072;52.554;7.966;2023-06-24T06:37:57;18.20;99.90
15947;DHT22;8072;52.554;7.966;2023-06-24T06:40:23;18.30;99.90
15947;DHT22;8072;52.554;7.966;2023-06-24T06:42:49;18.50;99.90
15947;DHT22;8072;52.554;7.966;2023-06-24T06:45:15;18.60;99.90
15947;DHT22;8072;52.554;7.966;2023-06-24T06:47:41;18.70;99.90
15947;DHT22;8072;52.554;7.966;2023-06-24T06:50:07;18.80;99.90
15947;DHT22;8072;52.554;7.966;2023-06-24T06:52:33;19.00;99.90
15947;DHT22;8072;52.554;7.966;2023-06-24T06:54:59;19.10;99.90
15947;DHT22;8072;52.554;7.966;2023-06-24T06:57:25;19.20;99.90
15947;DHT22;8072;52.554;7.966;2023-06-24T06:59:51;19.30;99.90
15947;DHT22;8072;52.554;7.966;2023-06-24T07:02:18;19.30;99.90
15947;DHT22;8072;52.554;7.966;2023-06-24T07:04:44;19.40;99.90
15947;DHT22;8072;52.554;7.966;2023-06-24T07:07:09;19.50;99.90
15947;DHT22;8072;52.554;7.966;2023-06-24T07:09:35;19.60;99.90
15947;DHT22;8072;52.554;7.966;2023-06-24T07:12:01;19.70;99.90
15947;DHT22;8072;52.554;7.966;2023-06-24T07:14:30;19.70;99.90
15947;DHT22;8072;52.554;7.966;2023-06-24T07:16:55;19.80;99.90
15947;DHT22;8072;52.554;7.966;2023-06-24T07:19:21;19.80;99.90
15947;DHT22;8072;52.554;7.966;2023-06-24T07:21:47;19.90;99.90
15947;DHT22;8072;52.554;7.966;2023-06-24T07:24:13;19.90;99.90
15947;DHT22;8072;52.554;7.966;2023-06-24T07:26:38;20.00;99.90
15947;DHT22;8072;52.554;7.966;2023-06-24T07:29:06;20.10;99.90
15947;DHT22;8072;52.554;7.966;2023-06-24T07:31:32;20.20;99.90
15947;DHT22;8072;52.554;7.966;2023-06-24T07:33:58;20.20;99.90
15947;DHT22;8072;52.554;7.966;2023-06-24T07:36:24;20.20;99.90
15947;DHT22;8072;52.554;7.966;2023-06-24T07:38:50;20.30;99.90
15947;DHT22;8072;52.554;7.966;2023-06-24T07:41:15;20.40;99.90
15947;DHT22;8072;52.554;7.966;2023-06-24T07:43:41;20.50;99.90
15947;DHT22;8072;52.554;7.966;2023-06-24T07:46:07;20.50;99.90
15947;DHT22;8072;52.554;7.966;2023-06-24T07:48:33;20.50;99.90
15947;DHT22;8072;52.554;7.966;2023-06-24T07:50:59;20.60;99.90
15947;DHT22;8072;52.554;7.966;2023-06-24T07:53:25;20.70;99.90
15947;DHT22;8072;52.554;7.966;2023-06-24T07:55:50;20.80;99.90
15947;DHT22;8072;52.554;7.966;2023-06-24T07:58:16;21.00;99.90
15947;DHT22;8072;52.554;7.966;2023-06-24T08:00:42;21.10;99.90
15947;DHT22;8072;52.554;7.966;2023-06-24T08:03:08;21.10;99.90
15947;DHT22;8072;52.554;7.966;2023-06-24T08:05:33;21.20;99.90
15947;DHT22;8072;52.554;7.966;2023-06-24T08:07:59;21.20;99.90
15947;DHT22;8072;52.554;7.966;2023-06-24T08:10:25;21.40;99.90
15947;DHT22;8072;52.554;7.966;2023-06-24T08:12:51;21.40;99.90
15947;DHT22;8072;52.554;7.966;2023-06-24T08:15:17;21.50;99.90
15947;DHT22;8072;52.554;7.966;2023-06-24T08:17:42;21.50;99.90
15947;DHT22;8072;52.554;7.966;2023-06-24T08:20:09;21.70;99.90
15947;DHT22;8072;52.554;7.966;2023-06-24T08:22:35;21.80;99.90
15947;DHT22;8072;52.554;7.966;2023-06-24T08:25:00;21.80;99.90
15947;DHT22;8072;52.554;7.966;2023-06-24T08:27:26;21.90;99.90
15947;DHT22;8072;52.554;7.966;2023-06-24T08:29:52;22.00;99.90
15947;DHT22;8072;52.554;7.966;2023-06-24T08:32:17;22.10;99.90
15947;DHT22;8072;52.554;7.966;2023-06-24T08:34:43;22.20;99.90
15947;DHT22;8072;52.554;7.966;2023-06-24T08:37:09;22.30;99.90
15947;DHT22;8072;52.554;7.966;2023-06-24T08:39:35;22.40;99.90
15947;DHT22;8072;52.554;7.966;2023-06-24T08:42:02;22.40;99.90
15947;DHT22;8072;52.554;7.966;2023-06-24T08:44:28;22.40;99.90
15947;DHT22;8072;52.554;7.966;2023-06-24T08:46:54;22.40;99.90
15947;DHT22;8072;52.554;7.966;2023-06-24T08:52:03;22.60;99.90
15947;DHT22;8072;52.554;7.966;2023-06-24T08:54:30;22.70;99.90
15947;DHT22;8072;52.554;7.966;2023-06-24T08:56:59;22.80;99.90
15947;DHT22;8072;52.554;7.966;2023-06-24T08:59:27;22.90;99.90
15947;DHT22;8072;52.554;7.966;2023-06-24T09:01:53;23.00;99.90
15947;DHT22;8072;52.554;7.966;2023-06-24T09:04:18;23.10;99.90
15947;DHT22;8072;52.554;7.966;2023-06-24T09:06:44;23.20;99.90
15947;DHT22;8072;52.554;7.966;2023-06-24T09:09:22;23.20;99.90
15947;DHT22;8072;52.554;7.966;2023-06-24T09:14:20;23.60;99.90
15947;DHT22;8072;52.554;7.966;2023-06-24T09:16:59;23.60;99.90
15947;DHT22;8072;52.554;7.966;2023-06-24T09:19:29;23.60;99.90
15947;DHT22;8072;52.554;7.966;2023-06-24T09:22:06;23.70;99.90
15947;DHT22;8072;52.554;7.966;2023-06-24T09:24:33;23.80;99.90
15947;DHT22;8072;52.554;7.966;2023-06-24T09:26:59;23.90;99.90
15947;DHT22;8072;52.554;7.966;2023-06-24T09:29:26;24.00;99.90
15947;DHT22;8072;52.554;7.966;2023-06-24T09:31:55;24.10;99.90
15947;DHT22;8072;52.554;7.966;2023-06-24T09:34:22;24.10;99.90
15947;DHT22;8072;52.554;7.966;2023-06-24T09:36:53;24.10;99.90
15947;DHT22;8072;52.554;7.966;2023-06-24T09:39:19;24.10;99.90
15947;DHT22;8072;52.554;7.966;2023-06-24T09:41:54;24.20;99.90
15947;DHT22;8072;52.554;7.966;2023-06-24T09:44:20;24.30;99.90
15947;DHT22;8072;52.554;7.966;2023-06-24T09:46:47;24.60;99.90
15947;DHT22;8072;52.554;7.966;2023-06-24T09:49:13;24.70;99.90
15947;DHT22;8072;52.554;7.966;2023-06-24T09:51:42;24.80;99.90
15947;DHT22;8072;52.554;7.966;2023-06-24T09:54:09;24.80;99.90
15947;DHT22;8072;52.554;7.966;2023-06-24T09:56:36;24.90;99.90
15947;DHT22;8072;52.554;7.966;2023-06-24T09:59:05;24.90;99.90
15947;DHT22;8072;52.554;7.966;2023-06-24T10:01:32;24.90;99.90
15947;DHT22;8072;52.554;7.966;2023-06-24T10:04:01;24.90;99.90
15947;DHT22;8072;52.554;7.966;2023-06-24T10:06:28;25.10;99.90
15947;DHT22;8072;52.554;7.966;2023-06-24T10:08:54;25.20;99.90
15947;DHT22;8072;52.554;7.966;2023-06-24T10:11:20;25.30;99.90
15947;DHT22;8072;52.554;7.966;2023-06-24T10:13:46;25.50;99.90
15947;DHT22;8072;52.554;7.966;2023-06-24T10:16:12;25.50;99.90
15947;DHT22;8072;52.554;7.966;2023-06-24T10:18:39;25.50;99.90
15947;DHT22;8072;52.554;7.966;2023-06-24T10:21:07;25.60;99.90
15947;DHT22;8072;52.554;7.966;2023-06-24T10:23:43;25.70;99.90
15947;DHT22;8072;52.554;7.966;2023-06-24T10:39:51;26.30;99.90
15947;DHT22;8072;52.554;7.966;2023-06-24T10:44:52;26.20;99.90
15947;DHT22;8072;52.554;7.966;2023-06-24T10:47:19;26.00;99.90
15947;DHT22;8072;52.554;7.966;2023-06-24T10:49:45;25.90;99.90
15947;DHT22;8072;52.554;7.966;2023-06-24T10:52:12;25.90;99.90
15947;DHT22;8072;52.554;7.966;2023-06-24T10:54:39;26.00;99.90
15947;DHT22;8072;52.554;7.966;2023-06-24T10:57:10;26.20;99.90
15947;DHT22;8072;52.554;7.966;2023-06-24T11:02:05;26.20;99.90
15947;DHT22;8072;52.554;7.966;2023-06-24T11:04:31;26.30;99.90
15947;DHT22;8072;52.554;7.966;2023-06-24T11:07:01;26.40;99.90
15947;DHT22;8072;52.554;7.966;2023-06-24T11:09:28;26.30;99.90
15947;DHT22;8072;52.554;7.966;2023-06-24T11:11:54;26.20;99.90
15947;DHT22;8072;52.554;7.966;2023-06-24T11:14:20;26.20;99.90
15947;DHT22;8072;52.554;7.966;2023-06-24T11:16:46;26.20;99.90
15947;DHT22;8072;52.554;7.966;2023-06-24T11:19:12;26.30;99.90
15947;DHT22;8072;52.554;7.966;2023-06-24T11:21:37;26.50;99.90
15947;DHT22;8072;52.554;7.966;2023-06-24T11:24:03;26.60;99.90
15947;DHT22;8072;52.554;7.966;2023-06-24T11:26:29;26.70;99.90
15947;DHT22;8072;52.554;7.966;2023-06-24T11:28:55;26.80;99.90
15947;DHT22;8072;52.554;7.966;2023-06-24T11:31:25;26.70;99.90
15947;DHT22;8072;52.554;7.966;2023-06-24T11:33:51;26.50;99.90
15947;DHT22;8072;52.554;7.966;2023-06-24T11:36:22;26.60;99.90
15947;DHT22;8072;52.554;7.966;2023-06-24T11:38:48;26.50;99.90
15947;DHT22;8072;52.554;7.966;2023-06-24T11:41:14;26.60;99.90
15947;DHT22;8072;52.554;7.966;2023-06-24T11:43:45;26.80;99.90
15947;DHT22;8072;52.554;7.966;2023-06-24T11:46:20;27.00;99.90
15947;DHT22;8072;52.554;7.966;2023-06-24T11:48:47;27.20;99.90
15947;DHT22;8072;52.554;7.966;2023-06-24T11:51:13;27.40;99.90
15947;DHT22;8072;52.554;7.966;2023-06-24T11:53:45;27.50;99.90
15947;DHT22;8072;52.554;7.966;2023-06-24T11:56:12;27.60;99.90
15947;DHT22;8072;52.554;7.966;2023-06-24T11:58:38;27.30;99.90
15947;DHT22;8072;52.554;7.966;2023-06-24T12:01:06;27.10;99.90
15947;DHT22;8072;52.554;7.966;2023-06-24T12:03:32;26.90;99.90
15947;DHT22;8072;52.554;7.966;2023-06-24T12:05:59;27.00;99.90
15947;DHT22;8072;52.554;7.966;2023-06-24T12:08:25;27.00;99.90
15947;DHT22;8072;52.554;7.966;2023-06-24T12:10:51;26.90;99.90
15947;DHT22;8072;52.554;7.966;2023-06-24T12:13:17;26.80;99.90
15947;DHT22;8072;52.554;7.966;2023-06-24T12:15:43;26.70;99.90
15947;DHT22;8072;52.554;7.966;2023-06-24T12:18:09;26.60;99.90
15947;DHT22;8072;52.554;7.966;2023-06-24T12:20:35;26.50;99.90
15947;DHT22;8072;52.554;7.966;2023-06-24T12:23:02;26.40;99.90
15947;DHT22;8072;52.554;7.966;2023-06-24T12:25:31;26.30;99.90
15947;DHT22;8072;52.554;7.966;2023-06-24T12:27:57;26.10;99.90
15947;DHT22;8072;52.554;7.966;2023-06-24T12:30:24;26.10;99.90
15947;DHT22;8072;52.554;7.966;2023-06-24T12:32:51;26.10;99.90
15947;DHT22;8072;52.554;7.966;2023-06-24T12:35:17;26.30;99.90
15947;DHT22;8072;52.554;7.966;2023-06-24T12:37:43;26.30;99.90
15947;DHT22;8072;52.554;7.966;2023-06-24T12:40:10;26.60;99.90
15947;DHT22;8072;52.554;7.966;2023-06-24T12:42:36;26.70;99.90
15947;DHT22;8072;52.554;7.966;2023-06-24T12:45:02;27.00;99.90
15947;DHT22;8072;52.554;7.966;2023-06-24T12:47:28;27.10;99.90
15947;DHT22;8072;52.554;7.966;2023-06-24T12:49:54;27.00;99.90
15947;DHT22;8072;52.554;7.966;2023-06-24T12:52:19;26.90;99.90
15947;DHT22;8072;52.554;7.966;2023-06-24T12:54:45;26.80;99.90
15947;DHT22;8072;52.554;7.966;2023-06-24T12:57:11;26.80;99.90
15947;DHT22;8072;52.554;7.966;2023-06-24T12:59:36;27.10;99.90
15947;DHT22;8072;52.554;7.966;2023-06-24T13:02:03;27.20;99.90
15947;DHT22;8072;52.554;7.966;2023-06-24T13:04:29;27.30;99.90
15947;DHT22;8072;52.554;7.966;2023-06-24T13:06:55;27.50;99.90
15947;DHT22;8072;52.554;7.966;2023-06-24T13:09:20;27.50;99.90
15947;DHT22;8072;52.554;7.966;2023-06-24T13:11:46;27.60;99.90
15947;DHT22;8072;52.554;7.966;2023-06-24T13:14:13;27.60;99.90
15947;DHT22;8072;52.554;7.966;2023-06-24T13:16:38;27.60;99.90
15947;DHT22;8072;52.554;7.966;2023-06-24T13:19:04;27.80;99.90
15947;DHT22;8072;52.554;7.966;2023-06-24T13:21:30;27.90;99.90
15947;DHT22;8072;52.554;7.966;2023-06-24T13:23:56;28.00;99.90
15947;DHT22;8072;52.554;7.966;2023-06-24T13:26:22;28.00;99.90
15947;DHT22;8072;52.554;7.966;2023-06-24T13:28:49;28.00;99.90
15947;DHT22;8072;52.554;7.966;2023-06-24T13:31:15;28.00;99.90
15947;DHT22;8072;52.554;7.966;2023-06-24T13:33:41;27.90;99.90
15947;DHT22;8072;52.554;7.966;2023-06-24T13:36:25;27.70;99.90
15947;DHT22;8072;52.554;7.966;2023-06-24T13:38:53;27.50;99.90
15947;DHT22;8072;52.554;7.966;2023-06-24T13:41:18;27.50;99.90
15947;DHT22;8072;52.554;7.966;2023-06-24T13:43:44;27.50;99.90
15947;DHT22;8072;52.554;7.966;2023-06-24T13:46:10;27.50;99.90
15947;DHT22;8072;52.554;7.966;2023-06-24T13:48:36;27.60;99.90
15947;DHT22;8072;52.554;7.966;2023-06-24T13:51:02;27.60;99.90
15947;DHT22;8072;52.554;7.966;2023-06-24T13:53:27;27.40;99.90
15947;DHT22;8072;52.554;7.966;2023-06-24T13:55:53;27.30;99.90
15947;DHT22;8072;52.554;7.966;2023-06-24T13:58:19;27.40;99.90
15947;DHT22;8072;52.554;7.966;2023-06-24T14:00:44;27.40;99.90
15947;DHT22;8072;52.554;7.966;2023-06-24T14:03:11;27.50;99.90
15947;DHT22;8072;52.554;7.966;2023-06-24T14:05:37;27.30;99.90
15947;DHT22;8072;52.554;7.966;2023-06-24T14:08:03;27.30;99.90
15947;DHT22;8072;52.554;7.966;2023-06-24T14:10:29;27.30;99.90
15947;DHT22;8072;52.554;7.966;2023-06-24T14:12:54;27.40;99.90
15947;DHT22;8072;52.554;7.966;2023-06-24T14:15:20;27.50;99.90
15947;DHT22;8072;52.554;7.966;2023-06-24T14:17:46;27.70;99.90
15947;DHT22;8072;52.554;7.966;2023-06-24T14:20:12;27.90;99.90
15947;DHT22;8072;52.554;7.966;2023-06-24T14:22:37;28.00;99.90
15947;DHT22;8072;52.554;7.966;2023-06-24T14:25:04;28.10;99.90
15947;DHT22;8072;52.554;7.966;2023-06-24T14:27:30;28.20;99.90
15947;DHT22;8072;52.554;7.966;2023-06-24T14:29:55;28.20;99.90
15947;DHT22;8072;52.554;7.966;2023-06-24T14:32:21;28.20;99.90
15947;DHT22;8072;52.554;7.966;2023-06-24T14:34:47;28.20;99.90
15947;DHT22;8072;52.554;7.966;2023-06-24T14:37:13;28.20;99.90
15947;DHT22;8072;52.554;7.966;2023-06-24T14:39:40;28.20;99.90
15947;DHT22;8072;52.554;7.966;2023-06-24T14:42:06;28.30;99.90
15947;DHT22;8072;52.554;7.966;2023-06-24T14:44:32;28.30;99.90
15947;DHT22;8072;52.554;7.966;2023-06-24T14:46:58;28.10;99.90
15947;DHT22;8072;52.554;7.966;2023-06-24T14:49:24;28.00;99.90
15947;DHT22;8072;52.554;7.966;2023-06-24T14:51:51;27.90;99.90
15947;DHT22;8072;52.554;7.966;2023-06-24T14:54:17;27.90;99.90
15947;DHT22;8072;52.554;7.966;2023-06-24T14:56:44;27.90;99.90
15947;DHT22;8072;52.554;7.966;2023-06-24T14:59:11;27.90;99.90
15947;DHT22;8072;52.554;7.966;2023-06-24T15:01:36;27.90;99.90
15947;DHT22;8072;52.554;7.966;2023-06-24T15:04:05;27.90;99.90
15947;DHT22;8072;52.554;7.966;2023-06-24T15:06:31;28.00;99.90
15947;DHT22;8072;52.554;7.966;2023-06-24T15:08:57;28.10;99.90
15947;DHT22;8072;52.554;7.966;2023-06-24T15:11:22;28.10;99.90
15947;DHT22;8072;52.554;7.966;2023-06-24T15:13:48;28.10;99.90
15947;DHT22;8072;52.554;7.966;2023-06-24T15:16:14;28.20;99.90
15947;DHT22;8072;52.554;7.966;2023-06-24T15:18:46;28.00;99.90
15947;DHT22;8072;52.554;7.966;2023-06-24T15:21:13;27.90;99.90
15947;DHT22;8072;52.554;7.966;2023-06-24T15:23:39;27.60;99.90
15947;DHT22;8072;52.554;7.966;2023-06-24T15:26:05;27.50;99.90
15947;DHT22;8072;52.554;7.966;2023-06-24T15:28:31;27.20;99.90
15947;DHT22;8072;52.554;7.966;2023-06-24T15:31:01;27.10;99.90
15947;DHT22;8072;52.554;7.966;2023-06-24T15:33:27;27.00;99.90
15947;DHT22;8072;52.554;7.966;2023-06-24T15:35:55;26.90;99.90
15947;DHT22;8072;52.554;7.966;2023-06-24T15:38:23;26.80;99.90
15947;DHT22;8072;52.554;7.966;2023-06-24T15:40:48;26.70;99.90
15947;DHT22;8072;52.554;7.966;2023-06-24T15:43:14;26.60;99.90
15947;DHT22;8072;52.554;7.966;2023-06-24T15:45:40;26.50;99.90
15947;DHT22;8072;52.554;7.966;2023-06-24T15:48:06;26.50;99.90
15947;DHT22;8072;52.554;7.966;2023-06-24T15:50:32;26.40;99.90
15947;DHT22;8072;52.554;7.966;2023-06-24T15:52:57;26.40;99.90
15947;DHT22;8072;52.554;7.966;2023-06-24T15:55:23;26.40;99.90
15947;DHT22;8072;52.554;7.966;2023-06-24T15:57:49;26.30;99.90
15947;DHT22;8072;52.554;7.966;2023-06-24T16:00:15;26.30;99.90
15947;DHT22;8072;52.554;7.966;2023-06-24T16:02:41;26.30;99.90
15947;DHT22;8072;52.554;7.966;2023-06-24T16:05:07;26.30;99.90
15947;DHT22;8072;52.554;7.966;2023-06-24T16:07:36;26.20;99.90
15947;DHT22;8072;52.554;7.966;2023-06-24T16:10:03;26.20;99.90
15947;DHT22;8072;52.554;7.966;2023-06-24T16:12:29;26.30;99.90
15947;DHT22;8072;52.554;7.966;2023-06-24T16:14:54;26.30;99.90
15947;DHT22;8072;52.554;7.966;2023-06-24T16:17:20;26.30;99.90